Time;durP1;ratioP1;P1;durP2;ratioP2;P2;SDS_P1;SDS_P2;PMS_P1;PMS_P2;Temp;Humidity;BMP_temperature;BMP_pressure;BME280_temperature;BME280_humidity;BME280_pressure;Samples;Min_cycle;Max_cycle;Signal;HPM_P1;HPM_P2
2022/05/17 00:01:42;;;;;;;7.38;5.50;;;;;;;20.97;100.00;101173.25;4867677;29;20057;-72
2022/05/17 00:04:27;;;;;;;7.97;5.00;;;;;;;21.09;100.00;101170.78;4881311;29;20116;-72
2022/05/17 00:07:13;;;;;;;8.23;5.30;;;;;;;20.70;100.00;101167.50;4880683;29;20033;-73
2022/05/17 00:09:59;;;;;;;5.85;5.25;;;;;;;20.99;100.00;101166.91;4881083;29;20040;-72
2022/05/17 00:12:45;;;;;;;5.95;5.13;;;;;;;21.01;100.00;101166.84;4880474;29;20037;-73
2022/05/17 00:15:32;;;;;;;6.78;5.25;;;;;;;21.34;100.00;101160.53;4868394;29;20040;-73
2022/05/17 00:18:19;;;;;;;6.43;5.35;;;;;;;20.81;100.00;101157.16;4879778;29;20053;-73
2022/05/17 00:21:05;;;;;;;8.75;5.07;;;;;;;20.85;100.00;101147.25;4880531;29;20058;-73
2022/05/17 00:23:50;;;;;;;6.30;5.70;;;;;;;21.06;100.00;101146.97;4867438;29;20371;-73
2022/05/17 00:26:36;;;;;;;6.10;5.00;;;;;;;20.96;100.00;101144.88;4880475;29;20037;-72
2022/05/17 00:29:22;;;;;;;6.70;5.15;;;;;;;21.02;100.00;101140.06;4881584;29;20029;-72
2022/05/17 00:32:08;;;;;;;6.30;5.00;;;;;;;21.12;100.00;101136.00;4879755;29;20062;-73
2022/05/17 00:34:55;;;;;;;7.60;5.35;;;;;;;21.18;100.00;101130.31;4880028;29;20120;-72
2022/05/17 00:37:40;;;;;;;8.18;5.25;;;;;;;21.21;100.00;101135.47;4867843;29;20029;-72
2022/05/17 00:40:26;;;;;;;6.97;5.13;;;;;;;21.27;100.00;101134.28;4880490;29;20468;-73
2022/05/17 00:47:01;;;;;;;13.85;6.05;;;;;;;21.21;100.00;101142.59;4881366;29;20059;-72
2022/05/17 00:49:50;;;;;;;8.50;5.78;;;;;;;21.25;100.00;101138.81;4879658;29;20028;-73
2022/05/17 00:52:44;;;;;;;7.88;5.90;;;;;;;21.30;100.00;101140.31;4867743;29;20044;-73
2022/05/17 00:55:51;;;;;;;10.32;5.43;;;;;;;21.25;100.00;101138.81;4880155;29;20037;-72
2022/05/17 00:58:46;;;;;;;8.95;6.25;;;;;;;21.39;100.00;101138.94;4880512;29;20455;-74
2022/05/17 01:01:32;;;;;;;10.10;8.23;;;;;;;21.11;100.00;101133.41;4880420;29;20037;-73
2022/05/17 01:04:20;;;;;;;9.40;7.55;;;;;;;21.13;100.00;101135.03;4880417;29;20026;-73
2022/05/17 01:07:14;;;;;;;12.55;8.90;;;;;;;20.84;100.00;101130.38;4865796;29;20109;-73
2022/05/17 01:10:00;;;;;;;9.05;7.63;;;;;;;20.80;100.00;101128.81;4879945;29;20025;-72
2022/05/17 01:14:57;;;;;;;8.07;7.28;;;;;;;21.11;100.00;101134.28;4879572;29;20474;-73
2022/05/17 01:15:52;;;;;;;8.93;6.78;;;;;;;20.88;100.00;101128.41;4883565;29;20041;-73
2022/05/17 01:18:40;;;;;;;10.60;6.15;;;;;;;20.57;100.00;101126.50;4869860;29;20045;-73
2022/05/17 01:21:26;;;;;;;9.18;5.90;;;;;;;20.73;100.00;101122.09;4883678;29;20026;-73
2022/05/17 01:24:12;;;;;;;6.47;5.85;;;;;;;20.62;100.00;101116.44;4870385;29;20025;-73
2022/05/17 01:27:13;;;;;;;6.78;5.50;;;;;;;20.53;100.00;101124.09;4883845;29;20037;-73
2022/05/17 01:29:58;;;;;;;6.50;5.25;;;;;;;20.87;100.00;101116.91;4883888;29;20056;-72
2022/05/17 01:32:44;;;;;;;6.93;5.72;;;;;;;20.54;100.00;101113.34;4882830;29;20530;-72
2022/05/17 01:35:30;;;;;;;8.65;5.55;;;;;;;20.60;100.00;101120.16;4884219;29;20048;-73
2022/05/17 01:38:16;;;;;;;6.50;5.43;;;;;;;20.23;100.00;101115.88;4870935;29;20466;-73
2022/05/17 01:41:02;;;;;;;7.00;5.43;;;;;;;20.41;100.00;101103.44;4883368;29;20419;-73
2022/05/17 01:43:50;;;;;;;7.85;5.22;;;;;;;20.63;100.00;101107.56;4882539;29;20056;-73
2022/05/17 01:46:36;;;;;;;9.27;5.50;;;;;;;20.44;100.00;101104.13;4883789;29;20362;-73
2022/05/17 01:49:22;;;;;;;7.25;5.18;;;;;;;20.17;100.00;101110.84;4883222;29;20068;-73
2022/05/17 01:52:08;;;;;;;7.65;5.28;;;;;;;20.39;100.00;101106.16;4870649;29;20454;-74
2022/05/17 01:54:54;;;;;;;6.45;5.32;;;;;;;20.63;100.00;101107.56;4882563;29;20037;-73
2022/05/17 01:57:40;;;;;;;7.72;5.38;;;;;;;20.71;100.00;101112.47;4883207;29;20056;-73
2022/05/17 02:00:26;;;;;;;6.97;5.63;;;;;;;20.36;100.00;101108.97;4883577;29;20112;-73
2022/05/17 02:03:12;;;;;;;7.47;4.93;;;;;;;20.26;100.00;101109.53;4870073;29;20426;-74
2022/05/17 02:05:58;;;;;;;7.63;5.80;;;;;;;20.64;100.00;101111.94;4882707;29;20498;-73
2022/05/17 02:08:43;;;;;;;7.43;5.65;;;;;;;20.08;100.00;101113.94;4870025;29;20378;-74
2022/05/17 02:11:29;;;;;;;6.85;5.50;;;;;;;19.82;100.00;101108.19;4882520;29;20033;-71
2022/05/17 02:14:15;;;;;;;7.85;6.15;;;;;;;20.09;100.00;101107.69;4869488;29;20037;-72
2022/05/17 02:17:01;;;;;;;6.15;5.53;;;;;;;20.18;100.00;101119.69;4869491;29;20061;-72
2022/05/17 02:19:47;;;;;;;6.90;5.55;;;;;;;20.32;100.00;101111.84;4881593;29;20033;-72
2022/05/17 02:22:33;;;;;;;10.65;6.00;;;;;;;20.23;100.00;101117.66;4883248;29;20036;-72
2022/05/17 02:25:19;;;;;;;8.90;5.70;;;;;;;19.83;100.00;101112.56;4881780;29;20040;-73
2022/05/17 02:28:06;;;;;;;9.43;5.40;;;;;;;19.85;100.00;101113.38;4883362;29;20039;-73
2022/05/17 02:30:52;;;;;;;8.02;5.50;;;;;;;19.70;100.00;101114.97;4882608;29;20029;-73
2022/05/17 02:33:37;;;;;;;7.03;6.30;;;;;;;19.36;100.00;101119.31;4882444;29;20466;-73
2022/05/17 02:36:23;;;;;;;8.75;6.05;;;;;;;19.63;100.00;101120.66;4882446;29;20455;-73
2022/05/17 02:39:09;;;;;;;8.75;6.03;;;;;;;19.45;100.00;101122.38;4883119;29;20029;-72
2022/05/17 02:41:55;;;;;;;7.30;6.22;;;;;;;19.78;100.00;101123.44;4869728;29;20040;-72
2022/05/17 02:44:41;;;;;;;8.75;5.93;;;;;;;19.64;100.00;101120.56;4882216;29;20041;-72
2022/05/17 02:47:26;;;;;;;7.35;6.03;;;;;;;19.82;100.00;101118.81;4882617;29;20072;-73
2022/05/17 02:50:12;;;;;;;10.48;6.45;;;;;;;19.66;100.00;101124.03;4882003;29;20029;-72
2022/05/17 02:52:58;;;;;;;7.00;6.30;;;;;;;19.54;100.00;101115.78;4882274;29;20033;-73
2022/05/17 02:55:44;;;;;;;11.80;6.57;;;;;;;19.32;100.00;101131.88;4868825;29;20033;-73
2022/05/17 02:58:29;;;;;;;10.50;7.82;;;;;;;19.51;100.00;101140.72;4881658;29;20025;-72
2022/05/17 03:01:15;;;;;;;8.13;6.53;;;;;;;19.56;100.00;101132.53;4882544;29;20036;-72
2022/05/17 03:04:01;;;;;;;10.57;6.43;;;;;;;19.31;100.00;101132.81;4881920;29;20097;-73
2022/05/17 03:06:47;;;;;;;10.52;6.95;;;;;;;19.02;100.00;101134.09;4881433;29;20117;-72
2022/05/17 03:09:33;;;;;;;10.48;6.53;;;;;;;19.11;100.00;101135.50;4882323;29;20443;-72
2022/05/17 03:12:18;;;;;;;8.52;6.60;;;;;;;19.44;100.00;101128.63;4881955;29;20069;-72
2022/05/17 03:15:05;;;;;;;8.00;6.43;;;;;;;19.39;100.00;101135.09;4881864;29;20029;-72
2022/05/17 03:17:51;;;;;;;9.70;6.80;;;;;;;19.27;100.00;101131.22;4868386;29;20060;-73
2022/05/17 03:20:37;;;;;;;12.00;6.57;;;;;;;19.63;100.00;101140.13;4881407;29;20033;-72
2022/05/17 03:23:23;;;;;;;8.93;6.63;;;;;;;19.67;100.00;101131.06;4881100;29;20033;-73
2022/05/17 03:26:08;;;;;;;12.80;7.15;;;;;;;19.48;100.00;101137.34;4881297;29;20033;-73
2022/05/17 03:28:56;;;;;;;8.30;6.30;;;;;;;19.54;100.00;101129.06;4869301;29;20044;-73
2022/05/17 03:31:42;;;;;;;13.27;6.72;;;;;;;19.59;100.00;101127.03;4881275;29;20443;-73
2022/05/17 03:34:31;;;;;;;9.50;6.40;;;;;;;19.56;100.00;101129.88;4882449;29;20035;-74
2022/05/17 03:37:17;;;;;;;11.30;6.32;;;;;;;19.62;100.00;101134.88;4880656;29;20085;-72
2022/05/17 03:40:04;;;;;;;10.43;7.28;;;;;;;19.92;100.00;101128.06;4868566;29;20435;-75
2022/05/17 03:42:50;;;;;;;9.63;6.43;;;;;;;19.82;100.00;101133.00;4880865;29;20028;-74
2022/05/17 03:45:35;;;;;;;9.43;6.60;;;;;;;19.82;100.00;101133.00;4867730;29;20041;-73
2022/05/17 03:48:24;;;;;;;10.25;6.85;;;;;;;20.05;100.00;101132.69;4881560;29;20331;-74
2022/05/17 03:51:14;;;;;;;9.55;6.97;;;;;;;20.03;100.00;101141.69;4881749;29;20091;-72
2022/05/17 03:54:00;;;;;;;9.43;6.70;;;;;;;19.72;100.00;101145.00;4880424;29;20442;-74
2022/05/17 03:56:47;;;;;;;10.27;6.63;;;;;;;19.63;100.00;101141.91;4868020;29;20033;-73
2022/05/17 03:59:33;;;;;;;9.82;6.82;;;;;;;20.00;100.00;101136.53;4881483;29;20115;-73
2022/05/17 04:02:19;;;;;;;8.80;6.50;;;;;;;20.19;100.00;101134.72;4880681;29;20025;-74
2022/05/17 04:05:05;;;;;;;11.32;7.20;;;;;;;20.22;100.00;101135.44;4881355;29;20037;-76
2022/05/17 04:07:51;;;;;;;9.55;6.40;;;;;;;20.43;100.00;101137.00;4880772;29;20029;-74
2022/05/17 04:10:37;;;;;;;10.93;7.40;;;;;;;20.60;100.00;101142.31;4880731;29;20021;-74
2022/05/17 04:13:29;;;;;;;12.10;7.00;;;;;;;20.60;100.00;101137.00;4880463;29;20037;-76
2022/05/17 04:16:15;;;;;;;12.35;7.18;;;;;;;20.77;100.00;101133.47;4880721;29;20366;-73
2022/05/17 04:19:01;;;;;;;13.45;7.03;;;;;;;20.61;100.00;101136.03;4880145;29;20048;-74
2022/05/17 04:21:47;;;;;;;9.27;7.03;;;;;;;20.78;100.00;101143.16;4880917;29;20451;-74
2022/05/17 04:24:34;;;;;;;12.57;6.97;;;;;;;21.06;100.00;101138.13;4879949;29;20025;-74
2022/05/17 04:27:19;;;;;;;11.60;6.30;;;;;;;21.10;100.00;101142.34;4880708;29;20037;-74
2022/05/17 04:30:06;;;;;;;10.00;6.50;;;;;;;21.08;100.00;101145.09;4867605;29;20127;-72
2022/05/17 04:32:51;;;;;;;12.25;6.40;;;;;;;21.28;100.00;101141.34;4880712;29;20036;-73
2022/05/17 04:35:38;;;;;;;10.88;6.68;;;;;;;21.26;100.00;101137.91;4879956;29;20411;-73
2022/05/17 04:38:24;;;;;;;11.77;6.32;;;;;;;21.18;100.00;101134.81;4867070;29;20029;-75
2022/05/17 04:41:10;;;;;;;12.10;6.57;;;;;;;20.69;100.00;101139.16;4879882;29;20033;-73
2022/05/17 04:43:55;;;;;;;11.82;6.60;;;;;;;21.33;100.00;101133.94;4880096;29;20033;-73
2022/05/17 04:46:41;;;;;;;12.15;7.35;;;;;;;21.45;100.00;101149.25;4867727;29;20029;-73
2022/05/17 04:49:27;;;;;;;13.13;6.72;;;;;;;21.49;100.00;101154.34;4865810;29;20035;-74
2022/05/17 04:52:15;;;;;;;14.60;7.05;;;;;;;21.36;100.00;101150.66;4879390;29;20100;-76
2022/05/17 04:55:01;;;;;;;13.80;6.38;;;;;;;21.64;100.00;101149.97;4879723;29;20065;-74
2022/05/17 04:57:47;;;;;;;8.93;6.32;;;;;;;21.84;100.00;101139.94;4880164;29;20411;-74
2022/05/17 05:00:33;;;;;;;6.95;5.85;;;;;;;21.92;100.00;101145.69;4880331;29;20025;-73
2022/05/17 05:03:19;;;;;;;8.27;6.47;;;;;;;21.41;100.00;101145.03;4880117;29;20069;-73
2022/05/17 05:06:05;;;;;;;13.10;6.20;;;;;;;21.67;100.00;101141.81;4880158;29;20379;-73
2022/05/17 05:08:50;;;;;;;10.00;6.32;;;;;;;21.67;100.00;101155.13;4880194;29;20096;-73
2022/05/17 05:11:37;;;;;;;9.25;5.85;;;;;;;21.75;100.00;101145.81;4879631;29;20131;-73
2022/05/17 05:14:22;;;;;;;9.30;6.15;;;;;;;21.93;100.00;101141.19;4880387;29;20039;-73
2022/05/17 05:17:09;;;;;;;10.63;6.43;;;;;;;22.03;100.00;101148.59;4879356;29;20077;-73
2022/05/17 05:19:55;;;;;;;10.00;6.45;;;;;;;22.07;100.00;101150.13;4879174;29;20462;-74
2022/05/17 05:22:41;;;;;;;9.50;5.72;;;;;;;21.60;100.00;101151.09;4880556;29;20379;-73
2022/05/17 05:25:27;;;;;;;11.13;7.72;;;;;;;22.01;100.00;101155.84;4880179;29;20049;-72
2022/05/17 05:28:13;;;;;;;12.57;6.75;;;;;;;22.19;100.00;101146.75;4880351;29;20359;-74
2022/05/17 05:31:00;;;;;;;12.02;6.80;;;;;;;22.27;100.00;101151.66;4879265;29;20076;-73
2022/05/17 05:33:45;;;;;;;9.43;6.30;;;;;;;22.51;100.00;101155.59;4880464;29;20043;-73
2022/05/17 05:36:31;;;;;;;13.43;6.50;;;;;;;22.40;100.00;101155.31;4879489;29;20096;-74
2022/05/17 05:39:17;;;;;;;11.07;6.50;;;;;;;22.23;100.00;101158.97;4880641;29;20039;-73
2022/05/17 05:42:04;;;;;;;14.43;6.53;;;;;;;22.35;100.00;101160.09;4879198;29;20096;-73
2022/05/17 05:44:50;;;;;;;10.43;6.88;;;;;;;22.12;100.00;101174.78;4879886;29;20029;-73
2022/05/17 05:47:36;;;;;;;11.90;6.38;;;;;;;22.15;100.00;101177.25;4880303;29;20111;-73
2022/05/17 05:50:22;;;;;;;9.73;6.43;;;;;;;22.36;100.00;101178.69;4879038;29;20032;-73
2022/05/17 05:53:11;;;;;;;10.10;6.20;;;;;;;22.38;100.00;101183.94;4866476;29;20108;-73
2022/05/17 05:56:03;;;;;;;11.02;6.22;;;;;;;21.71;100.00;101202.06;4865445;29;20029;-73
2022/05/17 05:58:49;;;;;;;14.13;6.50;;;;;;;22.14;100.00;101191.53;4866953;29;20072;-73
2022/05/17 06:01:35;;;;;;;13.35;7.80;;;;;;;22.21;100.00;101178.69;4882905;29;20467;-73
2022/05/17 06:04:21;;;;;;;8.90;6.30;;;;;;;22.22;100.00;101180.44;4883806;29;20434;-73
2022/05/17 06:07:07;;;;;;;8.48;6.03;;;;;;;22.45;100.00;101174.59;4875379;29;20115;-73
2022/05/17 06:09:52;;;;;;;9.82;6.88;;;;;;;22.71;100.00;101168.63;4874660;29;20049;-73
2022/05/17 06:12:39;;;;;;;7.85;6.55;;;;;;;22.46;100.00;101166.53;4875182;29;20037;-73
2022/05/17 06:15:24;;;;;;;9.82;6.60;;;;;;;23.04;100.00;101162.06;4875675;29;20083;-74
2022/05/17 06:18:11;;;;;;;8.50;6.68;;;;;;;22.35;100.00;101168.09;4874430;29;20061;-73
2022/05/17 06:21:00;;;;;;;7.82;6.03;;;;;;;22.27;100.00;101165.84;4875767;29;20041;-73
2022/05/17 06:23:46;;;;;;;10.77;6.15;;;;;;;22.47;100.00;101160.22;4862423;29;20109;-73
2022/05/17 06:26:32;;;;;;;8.60;6.60;;;;;;;23.08;100.00;101160.91;4861825;29;20105;-73
2022/05/17 06:29:18;;;;;;;9.35;6.18;;;;;;;23.39;100.00;101159.91;4873835;29;20064;-73
2022/05/17 06:32:05;;;;;;;8.63;6.78;;;;;;;23.81;98.17;101164.31;4873168;29;20464;-73
2022/05/17 06:34:51;;;;;;;9.35;6.22;;;;;;;23.51;97.51;101168.97;4875777;29;20637;-72
2022/05/17 06:37:37;;;;;;;9.80;6.95;;;;;;;23.70;97.22;101166.84;4874071;29;20338;-72
2022/05/17 06:40:23;;;;;;;11.35;6.72;;;;;;;23.81;93.87;101164.31;4873302;29;20108;-73
2022/05/17 06:43:09;;;;;;;7.88;6.28;;;;;;;23.57;94.16;101171.22;4874929;29;20672;-74
2022/05/17 06:45:55;;;;;;;12.23;6.85;;;;;;;24.32;90.05;101168.94;4875159;29;20069;-72
2022/05/17 06:48:40;;;;;;;8.20;6.45;;;;;;;24.34;87.68;101153.66;4871841;29;20616;-73
2022/05/17 06:51:26;;;;;;;12.77;8.13;;;;;;;24.21;87.27;101158.06;4875135;29;20029;-74
2022/05/17 06:54:12;;;;;;;10.18;7.13;;;;;;;24.30;80.46;101160.16;4874592;29;20527;-73
2022/05/17 06:57:06;;;;;;;8.55;6.70;;;;;;;24.05;81.35;101157.38;4874261;29;20032;-74
2022/05/17 06:59:52;;;;;;;9.73;6.90;;;;;;;24.32;77.75;101150.19;4872728;29;20180;-74
2022/05/17 07:02:38;;;;;;;9.15;6.50;;;;;;;24.40;76.29;101150.53;4873851;29;20351;-73
2022/05/17 07:05:24;;;;;;;9.05;6.13;;;;;;;24.27;76.74;101163.88;4862303;29;20029;-73
2022/05/17 07:08:10;;;;;;;10.00;6.38;;;;;;;24.24;78.29;101155.19;4873625;29;20033;-74
2022/05/17 07:14:00;;;;;;;7.88;6.53;;;;;;;24.91;76.77;101155.03;4874626;29;20029;-73
2022/05/17 07:16:46;;;;;;;13.70;6.40;;;;;;;24.77;77.85;101164.03;4874309;29;20044;-73
2022/05/17 07:19:35;;;;;;;12.07;6.32;;;;;;;24.84;78.40;101159.97;4859075;29;20037;-73
2022/05/17 07:22:20;;;;;;;12.70;6.10;;;;;;;25.01;79.80;101159.66;4861559;29;20085;-74
2022/05/17 07:25:07;;;;;;;8.43;6.70;;;;;;;25.49;76.98;101164.25;4873842;29;20128;-73
2022/05/17 07:27:53;;;;;;;9.60;6.60;;;;;;;25.39;77.08;101159.66;4873917;29;20128;-73
2022/05/17 07:30:39;;;;;;;10.35;6.72;;;;;;;25.71;75.00;101156.34;4859123;29;20513;-73
2022/05/17 07:33:28;;;;;;;9.30;5.70;;;;;;;25.88;73.03;101155.13;4874917;29;20069;-75
2022/05/17 07:36:17;;;;;;;7.50;6.40;;;;;;;25.47;72.83;101160.81;4874268;29;20664;-73
2022/05/17 07:39:02;;;;;;;7.38;5.95;;;;;;;25.29;73.98;101158.59;4871294;29;20029;-73
2022/05/17 07:41:49;;;;;;;10.63;5.88;;;;;;;25.25;69.11;101154.38;4873903;29;20047;-74
2022/05/17 07:44:38;;;;;;;10.30;5.95;;;;;;;25.84;69.43;101156.31;4871699;29;20518;-74
2022/05/17 07:47:24;;;;;;;5.90;5.30;;;;;;;26.22;66.67;101144.47;4876074;29;20108;-73
2022/05/17 07:50:10;;;;;;;8.00;6.40;;;;;;;26.58;64.05;101159.66;4858655;29;20036;-73
2022/05/17 07:52:56;;;;;;;9.88;5.90;;;;;;;26.19;63.47;101163.50;4873436;29;20344;-72
2022/05/17 07:55:44;;;;;;;8.95;5.45;;;;;;;25.91;65.21;101161.09;4872943;29;20628;-71
2022/05/17 07:58:30;;;;;;;11.80;6.38;;;;;;;26.73;62.91;101161.16;4871303;29;20119;-73
2022/05/17 08:01:15;;;;;;;6.72;5.72;;;;;;;26.63;62.32;101155.63;4873271;29;20051;-72
2022/05/17 08:04:02;;;;;;;11.02;5.70;;;;;;;26.81;61.62;101158.75;4860177;29;20025;-72
2022/05/17 08:06:48;;;;;;;11.55;6.00;;;;;;;26.85;61.07;101150.28;4873529;29;20052;-73
2022/05/17 08:09:37;;;;;;;8.23;5.80;;;;;;;27.12;61.40;101149.97;4871000;29;20108;-73
2022/05/17 08:12:23;;;;;;;9.90;5.70;;;;;;;27.47;60.51;101155.28;4860668;29;20178;-73
2022/05/17 08:15:10;;;;;;;10.35;5.60;;;;;;;27.43;58.91;101152.81;4872947;29;20120;-73
2022/05/17 08:17:56;;;;;;;10.38;5.35;;;;;;;27.95;56.77;101148.59;4872863;29;20053;-73
2022/05/17 08:20:42;;;;;;;9.80;5.43;;;;;;;27.48;56.40;101142.53;4870885;29;20051;-72
2022/05/17 08:23:28;;;;;;;9.65;5.80;;;;;;;28.62;56.26;101137.44;4872187;29;20132;-73
2022/05/17 08:29:18;;;;;;;7.13;5.30;;;;;;;27.75;53.98;101138.56;4871319;29;20132;-73
2022/05/17 08:35:09;;;;;;;10.65;5.30;;;;;;;29.19;50.77;101129.72;4873302;29;20037;-72
2022/05/17 08:37:55;;;;;;;10.15;5.00;;;;;;;29.55;48.99;101126.44;4873183;29;20151;-72
2022/05/17 08:40:53;;;;;;;9.25;4.45;;;;;;;29.66;49.21;101115.53;4870929;29;20048;-75
2022/05/17 08:43:47;;;;;;;9.65;5.03;;;;;;;28.88;50.09;101119.00;4872022;29;20061;-74
2022/05/17 08:46:57;;;;;;;7.78;5.38;;;;;;;29.59;48.66;101117.09;4872810;29;20057;-75
2022/05/17 08:49:55;;;;;;;7.78;5.68;;;;;;;29.85;48.52;101120.16;4870390;29;20108;-75
2022/05/17 08:52:46;;;;;;;14.63;9.20;;;;;;;29.89;47.28;101119.72;4870943;29;20980;-73
2022/05/17 08:55:36;;;;;;;7.75;5.18;;;;;;;29.55;46.68;101121.03;4872832;29;20025;-74
2022/05/17 08:58:30;;;;;;;13.27;6.07;;;;;;;30.17;46.81;101110.81;4871428;29;20470;-76
2022/05/17 09:01:25;;;;;;;11.00;5.78;;;;;;;29.48;47.78;101106.38;4872424;29;20104;-74
2022/05/17 09:04:23;;;;;;;10.60;5.00;;;;;;;29.73;48.46;101107.75;4872092;29;20041;-74
2022/05/17 09:07:17;;;;;;;8.07;5.07;;;;;;;29.79;47.84;101115.28;4871524;29;20060;-75
2022/05/17 09:11:05;;;;;;;7.32;5.03;;;;;;;29.92;47.98;101108.63;4858893;29;20033;-74
2022/05/17 09:14:15;;;;;;;7.50;4.68;;;;;;;29.99;48.62;101115.19;4804586;29;20473;-73
2022/05/17 09:17:10;;;;;;;9.35;4.65;;;;;;;29.61;48.92;101112.41;4858087;29;20124;-73
2022/05/17 09:19:56;;;;;;;6.88;4.80;;;;;;;30.13;48.55;101100.38;4858102;29;20069;-72
2022/05/17 09:22:42;;;;;;;6.20;4.95;;;;;;;29.87;48.37;101100.09;4872375;29;20427;-73
2022/05/17 09:25:50;;;;;;;8.07;4.93;;;;;;;30.32;48.57;101103.09;4874121;29;20037;-73
2022/05/17 09:28:52;;;;;;;7.97;5.20;;;;;;;29.92;48.79;101083.44;4869906;29;20100;-73
2022/05/17 09:31:38;;;;;;;10.18;4.70;;;;;;;29.69;49.19;101092.81;4859423;29;20048;-74
2022/05/17 09:34:45;;;;;;;6.43;4.60;;;;;;;29.70;49.24;101092.66;4872477;29;20074;-78
2022/05/17 09:37:36;;;;;;;9.27;4.63;;;;;;;29.79;49.65;101083.72;4875333;29;20029;-73
2022/05/17 09:40:25;;;;;;;7.53;5.10;;;;;;;29.34;50.82;101092.41;4873034;29;20497;-73
2022/05/17 09:43:12;;;;;;;8.07;5.13;;;;;;;29.76;48.81;101081.31;4875135;29;20489;-73
2022/05/17 09:46:09;;;;;;;9.25;5.32;;;;;;;29.86;48.98;101079.44;4875625;29;20056;-74
2022/05/17 09:55:32;;;;;;;6.75;4.97;;;;;;;30.07;50.15;101080.19;4876100;29;20033;-73
2022/05/17 09:58:39;;;;;;;6.03;4.28;;;;;;;29.71;48.89;101064.66;4862140;29;20029;-75
2022/05/17 10:01:38;;;;;;;8.50;4.93;;;;;;;29.99;48.53;101066.53;4861515;29;20041;-73
2022/05/17 10:04:24;;;;;;;8.70;5.30;;;;;;;29.96;49.92;101057.84;4875539;29;20033;-73
2022/05/17 10:07:17;;;;;;;10.55;6.03;;;;;;;29.76;49.48;101051.59;4861485;29;20025;-73
2022/05/17 10:10:21;;;;;;;5.88;5.22;;;;;;;29.64;49.45;101052.72;4873367;29;20028;-74
2022/05/17 10:13:30;;;;;;;8.13;5.10;;;;;;;30.05;48.49;101049.72;4849432;29;20458;-73
2022/05/17 10:17:00;;;;;;;6.10;4.85;;;;;;;30.47;48.59;101047.59;4874774;29;20382;-74
2022/05/17 10:19:48;;;;;;;10.07;4.60;;;;;;;30.41;46.56;101040.91;4866995;29;20077;-74
2022/05/17 10:22:51;;;;;;;8.23;4.20;;;;;;;29.93;46.54;101036.53;4874423;29;20029;-75
2022/05/17 10:25:49;;;;;;;9.35;4.40;;;;;;;30.08;46.83;101030.53;4874621;29;20076;-74
2022/05/17 10:28:41;;;;;;;10.93;4.32;;;;;;;30.26;46.68;101025.28;4872335;29;20033;-74
2022/05/17 10:31:39;;;;;;;8.15;4.68;;;;;;;30.23;46.75;101021.03;4874457;29;20066;-75
2022/05/17 10:34:40;;;;;;;7.63;4.00;;;;;;;30.29;44.12;101017.72;4874907;29;20041;-77
2022/05/17 10:37:46;;;;;;;5.15;4.00;;;;;;;30.59;43.53;101004.00;4862488;29;20040;-76
2022/05/17 10:40:35;;;;;;;9.57;4.13;;;;;;;30.35;44.80;101009.06;4873045;29;20462;-75
2022/05/17 10:43:28;;;;;;;7.70;4.40;;;;;;;30.44;46.21;101004.59;4874614;29;20037;-73
2022/05/17 10:46:29;;;;;;;6.20;4.35;;;;;;;30.29;47.41;101001.50;4874281;29;20060;-75
2022/05/17 10:49:53;;;;;;;8.55;4.40;;;;;;;30.63;45.48;101000.00;4871595;29;20051;-76
2022/05/17 10:52:59;;;;;;;6.18;4.47;;;;;;;30.50;45.42;100996.75;4861577;29;20069;-74
2022/05/17 10:56:03;;;;;;;5.45;4.53;;;;;;;30.87;45.06;100994.09;4873820;29;20043;-74
2022/05/17 10:59:25;;;;;;;5.63;4.28;;;;;;;30.13;44.93;100984.13;4859690;29;20047;-74
2022/05/17 11:02:20;;;;;;;13.85;5.72;;;;;;;31.03;45.44;100978.88;4798490;29;20078;-74
2022/05/17 11:05:34;;;;;;;6.72;4.40;;;;;;;31.25;43.93;100974.94;4874452;29;20036;-74
2022/05/17 11:08:31;;;;;;;8.02;5.68;;;;;;;30.74;43.40;100977.34;4860623;29;20139;-74
2022/05/17 11:11:29;;;;;;;6.93;4.60;;;;;;;30.77;43.39;100967.06;4874397;29;20061;-73
2022/05/17 11:14:33;;;;;;;7.03;4.30;;;;;;;30.50;43.31;100966.16;4873824;29;20043;-72
2022/05/17 11:17:30;;;;;;;7.30;3.63;;;;;;;30.77;42.75;100960.78;4854982;29;20062;-73
2022/05/17 11:20:28;;;;;;;6.53;4.10;;;;;;;30.63;43.62;100959.41;4852921;29;20132;-73
2022/05/17 11:23:39;;;;;;;4.75;3.88;;;;;;;31.03;43.04;100957.22;4855291;29;20033;-74
2022/05/17 11:26:39;;;;;;;8.50;3.92;;;;;;;30.96;42.64;100953.44;4855552;29;20049;-74
2022/05/17 11:29:40;;;;;;;7.55;3.80;;;;;;;31.51;41.83;100953.38;4853502;29;20041;-74
2022/05/17 11:32:34;;;;;;;5.10;3.65;;;;;;;31.26;40.81;100947.72;4855902;29;20042;-74
2022/05/17 11:35:29;;;;;;;5.00;3.80;;;;;;;31.12;40.44;100948.22;4856903;29;20129;-75
2022/05/17 11:38:32;;;;;;;7.22;3.72;;;;;;;31.49;38.98;100948.09;4854461;29;20134;-74
2022/05/17 11:41:31;;;;;;;5.60;4.10;;;;;;;31.28;38.95;100943.00;4854989;29;20048;-74
2022/05/17 11:44:27;;;;;;;7.22;3.80;;;;;;;31.25;38.91;100945.16;4854435;29;20044;-74
2022/05/17 11:47:44;;;;;;;4.10;3.17;;;;;;;31.37;37.39;100938.50;4854584;29;20041;-74
2022/05/17 11:50:31;;;;;;;6.72;3.75;;;;;;;31.84;37.59;100936.41;4854572;29;20041;-76
2022/05/17 11:53:23;;;;;;;7.93;4.18;;;;;;;31.43;36.57;100937.91;4854239;29;20062;-76
2022/05/17 11:56:34;;;;;;;5.72;3.10;;;;;;;31.47;35.31;100917.63;4854361;29;20120;-76
2022/05/17 11:59:29;;;;;;;5.93;3.50;;;;;;;31.40;36.26;100913.84;4851774;29;21241;-76
2022/05/17 12:02:15;;;;;;;4.25;3.53;;;;;;;31.28;35.40;100912.34;4854389;29;20040;-76
2022/05/17 12:05:04;;;;;;;4.80;3.40;;;;;;;31.42;35.36;100915.38;4855337;29;20093;-76
2022/05/17 12:07:50;;;;;;;6.38;3.45;;;;;;;31.45;34.28;100914.22;4854402;29;20041;-76
2022/05/17 12:10:38;;;;;;;6.22;3.22;;;;;;;30.95;35.28;100913.81;4851518;29;20029;-75
2022/05/17 12:13:24;;;;;;;3.70;3.00;;;;;;;31.29;34.62;100908.63;4855022;29;20047;-76
2022/05/17 12:16:19;;;;;;;12.68;3.70;;;;;;;30.89;35.06;100909.03;4853903;29;20116;-76
2022/05/17 12:19:30;;;;;;;10.82;3.25;;;;;;;31.28;34.90;100888.84;4851332;29;20056;-76
2022/05/17 12:22:29;;;;;;;7.47;3.55;;;;;;;31.42;35.67;100892.00;4854266;29;20040;-77
2022/05/17 12:25:42;;;;;;;7.63;3.83;;;;;;;31.67;34.82;100885.78;4853970;29;20539;-76
2022/05/17 12:28:51;;;;;;;6.72;3.45;;;;;;;32.06;34.67;100881.69;4851315;29;20056;-75
2022/05/17 12:31:37;;;;;;;7.35;3.65;;;;;;;31.18;35.12;100884.50;4854501;29;20033;-75
2022/05/17 12:34:23;;;;;;;5.00;3.08;;;;;;;31.72;35.18;100868.06;4854104;29;20106;-76
2022/05/17 12:37:12;;;;;;;9.52;3.92;;;;;;;32.01;35.28;100865.06;4853895;29;20029;-76
2022/05/17 12:43:25;;;;;;;9.25;4.22;;;;;;;31.44;37.15;100863.75;4853528;29;20025;-76
2022/05/17 12:46:28;;;;;;;8.75;4.07;;;;;;;31.22;37.28;100856.94;4854309;29;20037;-76
2022/05/17 12:49:25;;;;;;;7.43;4.05;;;;;;;31.56;37.93;100856.22;4851407;29;20049;-75
2022/05/17 12:52:34;;;;;;;5.32;4.28;;;;;;;31.69;36.66;100845.84;4853671;29;20112;-77
2022/05/17 12:55:26;;;;;;;5.55;3.60;;;;;;;31.46;35.94;100839.22;4853676;29;20449;-77
2022/05/17 12:58:15;;;;;;;6.95;3.33;;;;;;;31.27;34.74;100835.66;4854190;29;20471;-76
2022/05/17 13:01:03;;;;;;;5.03;3.10;;;;;;;31.41;34.24;100830.72;4854737;29;20034;-76
2022/05/17 13:03:49;;;;;;;6.55;3.63;;;;;;;31.61;33.83;100827.66;4853756;29;20042;-77
2022/05/17 13:06:39;;;;;;;4.88;3.30;;;;;;;31.41;32.51;100823.44;4854670;29;20411;-77
2022/05/17 13:09:26;;;;;;;4.10;3.25;;;;;;;31.27;33.48;100818.59;4852662;29;20060;-78
2022/05/17 13:12:13;;;;;;;6.32;4.03;;;;;;;31.18;33.36;100814.09;4856949;29;20093;-77
2022/05/17 13:15:04;;;;;;;5.20;3.97;;;;;;;31.27;33.86;100816.72;4858544;29;20037;-77
2022/05/17 13:17:57;;;;;;;8.02;4.25;;;;;;;31.14;34.06;100812.69;4867352;29;20085;-78
2022/05/17 13:20:48;;;;;;;9.07;3.88;;;;;;;31.05;33.32;100805.47;4874027;29;20049;-76
2022/05/17 13:23:34;;;;;;;8.15;3.90;;;;;;;31.34;33.78;100804.25;4876601;29;20513;-77
2022/05/17 13:26:29;;;;;;;9.27;3.88;;;;;;;31.40;33.58;100797.38;4875829;29;20445;-75
2022/05/17 13:29:35;;;;;;;4.90;3.63;;;;;;;31.37;33.09;100792.25;4873487;29;20064;-74